sensor_id;sensor_type;location;lat;lon;timestamp;P1;durP1;ratioP1;P2;durP2;ratioP2
54201;SDS011;40108;53.152;5.844;2022-12-07T00:00:55;8.27;;;0.80;;
54201;SDS011;40108;53.152;5.844;2022-12-07T00:03:33;5.28;;;0.70;;
54201;SDS011;40108;53.152;5.844;2022-12-07T00:05:59;6.03;;;0.88;;
54201;SDS011;40108;53.152;5.844;2022-12-07T00:08:25;4.53;;;0.57;;
54201;SDS011;40108;53.152;5.844;2022-12-07T00:10:51;6.32;;;0.60;;
54201;SDS011;40108;53.152;5.844;2022-12-07T00:13:17;8.95;;;0.98;;
54201;SDS011;40108;53.152;5.844;2022-12-07T00:15:42;10.82;;;1.10;;
54201;SDS011;40108;53.152;5.844;2022-12-07T00:18:08;6.60;;;0.90;;
54201;SDS011;40108;53.152;5.844;2022-12-07T00:20:34;11.65;;;1.25;;
54201;SDS011;40108;53.152;5.844;2022-12-07T00:22:59;10.00;;;1.80;;
54201;SDS011;40108;53.152;5.844;2022-12-07T00:25:25;6.70;;;0.70;;
54201;SDS011;40108;53.152;5.844;2022-12-07T00:27:54;8.27;;;0.77;;
54201;SDS011;40108;53.152;5.844;2022-12-07T00:30:21;14.93;;;1.63;;
54201;SDS011;40108;53.152;5.844;2022-12-07T00:32:48;11.55;;;1.38;;
54201;SDS011;40108;53.152;5.844;2022-12-07T00:35:14;12.73;;;1.38;;
54201;SDS011;40108;53.152;5.844;2022-12-07T00:37:40;11.07;;;1.48;;
54201;SDS011;40108;53.152;5.844;2022-12-07T00:40:06;14.50;;;1.05;;
54201;SDS011;40108;53.152;5.844;2022-12-07T00:42:32;13.80;;;1.65;;
54201;SDS011;40108;53.152;5.844;2022-12-07T00:44:57;10.43;;;0.80;;
54201;SDS011;40108;53.152;5.844;2022-12-07T00:47:23;5.38;;;1.00;;
54201;SDS011;40108;53.152;5.844;2022-12-07T00:49:48;8.13;;;1.08;;
54201;SDS011;40108;53.152;5.844;2022-12-07T00:52:14;5.82;;;0.90;;
54201;SDS011;40108;53.152;5.844;2022-12-07T00:54:40;8.73;;;0.82;;
54201;SDS011;40108;53.152;5.844;2022-12-07T00:57:05;9.93;;;0.98;;
54201;SDS011;40108;53.152;5.844;2022-12-07T00:59:31;7.05;;;1.10;;
54201;SDS011;40108;53.152;5.844;2022-12-07T01:01:57;5.00;;;1.00;;
54201;SDS011;40108;53.152;5.844;2022-12-07T01:04:22;7.47;;;0.85;;
54201;SDS011;40108;53.152;5.844;2022-12-07T01:06:48;6.13;;;0.80;;
54201;SDS011;40108;53.152;5.844;2022-12-07T01:09:14;4.53;;;0.60;;
54201;SDS011;40108;53.152;5.844;2022-12-07T01:11:39;5.85;;;0.63;;
54201;SDS011;40108;53.152;5.844;2022-12-07T01:14:05;5.30;;;0.80;;
54201;SDS011;40108;53.152;5.844;2022-12-07T01:16:31;4.75;;;1.00;;
54201;SDS011;40108;53.152;5.844;2022-12-07T01:18:58;3.35;;;0.50;;
54201;SDS011;40108;53.152;5.844;2022-12-07T01:21:26;8.40;;;0.80;;
54201;SDS011;40108;53.152;5.844;2022-12-07T01:24:01;7.18;;;0.90;;
54201;SDS011;40108;53.152;5.844;2022-12-07T01:26:27;5.93;;;0.70;;
54201;SDS011;40108;53.152;5.844;2022-12-07T01:28:54;8.80;;;0.93;;
54201;SDS011;40108;53.152;5.844;2022-12-07T01:31:21;10.23;;;1.15;;
54201;SDS011;40108;53.152;5.844;2022-12-07T01:33:49;8.90;;;0.77;;
54201;SDS011;40108;53.152;5.844;2022-12-07T01:36:18;4.93;;;0.60;;
54201;SDS011;40108;53.152;5.844;2022-12-07T01:38:49;8.07;;;1.00;;
54201;SDS011;40108;53.152;5.844;2022-12-07T01:41:17;7.15;;;1.10;;
54201;SDS011;40108;53.152;5.844;2022-12-07T01:46:41;7.25;;;0.80;;
54201;SDS011;40108;53.152;5.844;2022-12-07T01:49:16;10.27;;;1.15;;
54201;SDS011;40108;53.152;5.844;2022-12-07T01:54:33;12.93;;;1.25;;
54201;SDS011;40108;53.152;5.844;2022-12-07T01:57:00;9.77;;;0.80;;
54201;SDS011;40108;53.152;5.844;2022-12-07T01:59:27;12.77;;;1.10;;
54201;SDS011;40108;53.152;5.844;2022-12-07T02:01:53;8.90;;;1.20;;
54201;SDS011;40108;53.152;5.844;2022-12-07T02:04:21;10.60;;;0.95;;
54201;SDS011;40108;53.152;5.844;2022-12-07T02:06:47;10.85;;;1.83;;
54201;SDS011;40108;53.152;5.844;2022-12-07T02:09:15;15.45;;;1.65;;
54201;SDS011;40108;53.152;5.844;2022-12-07T02:11:40;10.43;;;1.30;;
54201;SDS011;40108;53.152;5.844;2022-12-07T02:14:06;9.00;;;1.00;;
54201;SDS011;40108;53.152;5.844;2022-12-07T02:24:54;11.35;;;0.90;;
54201;SDS011;40108;53.152;5.844;2022-12-07T02:30:17;11.45;;;1.30;;
54201;SDS011;40108;53.152;5.844;2022-12-07T02:32:48;12.50;;;1.13;;
54201;SDS011;40108;53.152;5.844;2022-12-07T02:35:24;14.52;;;1.15;;
54201;SDS011;40108;53.152;5.844;2022-12-07T02:37:59;11.38;;;1.42;;
54201;SDS011;40108;53.152;5.844;2022-12-07T02:40:35;12.40;;;1.40;;
54201;SDS011;40108;53.152;5.844;2022-12-07T02:43:08;13.38;;;1.38;;
54201;SDS011;40108;53.152;5.844;2022-12-07T02:45:39;12.93;;;1.30;;
54201;SDS011;40108;53.152;5.844;2022-12-07T02:48:08;10.95;;;1.30;;
54201;SDS011;40108;53.152;5.844;2022-12-07T02:50:37;10.10;;;1.27;;
54201;SDS011;40108;53.152;5.844;2022-12-07T02:53:03;8.43;;;1.05;;
54201;SDS011;40108;53.152;5.844;2022-12-07T02:55:30;10.27;;;1.27;;
54201;SDS011;40108;53.152;5.844;2022-12-07T03:01:04;11.60;;;0.98;;
54201;SDS011;40108;53.152;5.844;2022-12-07T03:03:43;9.43;;;1.10;;
54201;SDS011;40108;53.152;5.844;2022-12-07T03:06:17;6.05;;;0.93;;
54201;SDS011;40108;53.152;5.844;2022-12-07T03:08:57;11.32;;;1.13;;
54201;SDS011;40108;53.152;5.844;2022-12-07T03:11:50;7.75;;;0.93;;
54201;SDS011;40108;53.152;5.844;2022-12-07T03:14:45;10.10;;;0.80;;
54201;SDS011;40108;53.152;5.844;2022-12-07T03:17:30;7.50;;;0.77;;
54201;SDS011;40108;53.152;5.844;2022-12-07T03:20:00;10.30;;;0.98;;
54201;SDS011;40108;53.152;5.844;2022-12-07T03:22:29;11.85;;;1.52;;
54201;SDS011;40108;53.152;5.844;2022-12-07T03:24:58;9.20;;;1.20;;
54201;SDS011;40108;53.152;5.844;2022-12-07T03:27:30;8.90;;;1.00;;
54201;SDS011;40108;53.152;5.844;2022-12-07T03:30:00;12.35;;;1.17;;
54201;SDS011;40108;53.152;5.844;2022-12-07T03:32:35;6.97;;;1.00;;
54201;SDS011;40108;53.152;5.844;2022-12-07T03:43:00;6.05;;;0.60;;
54201;SDS011;40108;53.152;5.844;2022-12-07T03:48:42;2.95;;;0.45;;
54201;SDS011;40108;53.152;5.844;2022-12-07T03:52:11;4.13;;;0.70;;
54201;SDS011;40108;53.152;5.844;2022-12-07T03:54:41;6.68;;;0.85;;
54201;SDS011;40108;53.152;5.844;2022-12-07T03:57:09;6.18;;;1.02;;
54201;SDS011;40108;53.152;5.844;2022-12-07T03:59:37;4.78;;;0.65;;
54201;SDS011;40108;53.152;5.844;2022-12-07T04:02:05;7.15;;;1.05;;
54201;SDS011;40108;53.152;5.844;2022-12-07T04:04:32;9.55;;;0.85;;
54201;SDS011;40108;53.152;5.844;2022-12-07T04:06:59;8.82;;;0.95;;
54201;SDS011;40108;53.152;5.844;2022-12-07T04:09:25;5.90;;;0.80;;
54201;SDS011;40108;53.152;5.844;2022-12-07T04:11:50;12.43;;;1.23;;
54201;SDS011;40108;53.152;5.844;2022-12-07T04:14:16;8.35;;;0.90;;
54201;SDS011;40108;53.152;5.844;2022-12-07T04:16:46;7.43;;;0.80;;
54201;SDS011;40108;53.152;5.844;2022-12-07T04:19:17;9.57;;;0.93;;
54201;SDS011;40108;53.152;5.844;2022-12-07T04:21:44;9.07;;;1.17;;
54201;SDS011;40108;53.152;5.844;2022-12-07T04:24:11;8.05;;;1.08;;
54201;SDS011;40108;53.152;5.844;2022-12-07T04:26:38;11.70;;;1.23;;
54201;SDS011;40108;53.152;5.844;2022-12-07T04:29:04;6.18;;;0.77;;
54201;SDS011;40108;53.152;5.844;2022-12-07T04:31:30;4.28;;;0.73;;
54201;SDS011;40108;53.152;5.844;2022-12-07T04:33:55;9.52;;;1.02;;
54201;SDS011;40108;53.152;5.844;2022-12-07T04:36:21;6.90;;;0.90;;
54201;SDS011;40108;53.152;5.844;2022-12-07T04:38:47;5.55;;;1.27;;
54201;SDS011;40108;53.152;5.844;2022-12-07T04:41:13;16.58;;;1.23;;
54201;SDS011;40108;53.152;5.844;2022-12-07T04:43:39;8.85;;;1.00;;
54201;SDS011;40108;53.152;5.844;2022-12-07T04:46:04;7.32;;;1.48;;
54201;SDS011;40108;53.152;5.844;2022-12-07T04:48:30;12.07;;;1.92;;
54201;SDS011;40108;53.152;5.844;2022-12-07T04:50:56;9.15;;;1.27;;
54201;SDS011;40108;53.152;5.844;2022-12-07T04:53:22;13.02;;;3.15;;
54201;SDS011;40108;53.152;5.844;2022-12-07T04:55:47;5.65;;;1.40;;
54201;SDS011;40108;53.152;5.844;2022-12-07T04:58:13;12.20;;;1.27;;
54201;SDS011;40108;53.152;5.844;2022-12-07T05:00:39;12.55;;;1.42;;
54201;SDS011;40108;53.152;5.844;2022-12-07T05:03:05;12.23;;;1.20;;
54201;SDS011;40108;53.152;5.844;2022-12-07T05:05:31;7.03;;;0.80;;
54201;SDS011;40108;53.152;5.844;2022-12-07T05:07:56;9.38;;;1.23;;
54201;SDS011;40108;53.152;5.844;2022-12-07T05:10:22;10.07;;;0.95;;
54201;SDS011;40108;53.152;5.844;2022-12-07T05:12:48;11.43;;;1.40;;
54201;SDS011;40108;53.152;5.844;2022-12-07T05:15:14;7.63;;;0.90;;
54201;SDS011;40108;53.152;5.844;2022-12-07T05:17:40;9.10;;;1.15;;
54201;SDS011;40108;53.152;5.844;2022-12-07T05:20:06;6.45;;;0.90;;
54201;SDS011;40108;53.152;5.844;2022-12-07T05:22:32;5.53;;;0.73;;
54201;SDS011;40108;53.152;5.844;2022-12-07T05:24:58;17.42;;;1.00;;
54201;SDS011;40108;53.152;5.844;2022-12-07T05:27:24;7.43;;;1.02;;
54201;SDS011;40108;53.152;5.844;2022-12-07T05:29:50;5.55;;;0.73;;
54201;SDS011;40108;53.152;5.844;2022-12-07T05:32:16;6.72;;;0.70;;
54201;SDS011;40108;53.152;5.844;2022-12-07T05:34:43;12.13;;;1.10;;
54201;SDS011;40108;53.152;5.844;2022-12-07T05:37:08;11.13;;;1.20;;
54201;SDS011;40108;53.152;5.844;2022-12-07T05:39:34;10.65;;;0.93;;
54201;SDS011;40108;53.152;5.844;2022-12-07T05:42:00;10.18;;;0.93;;
54201;SDS011;40108;53.152;5.844;2022-12-07T05:44:41;9.07;;;0.93;;
54201;SDS011;40108;53.152;5.844;2022-12-07T05:47:09;8.60;;;0.88;;
54201;SDS011;40108;53.152;5.844;2022-12-07T05:49:35;10.82;;;1.35;;
54201;SDS011;40108;53.152;5.844;2022-12-07T05:52:01;10.80;;;1.15;;
54201;SDS011;40108;53.152;5.844;2022-12-07T05:54:26;11.40;;;2.22;;
54201;SDS011;40108;53.152;5.844;2022-12-07T05:56:53;5.68;;;1.00;;
54201;SDS011;40108;53.152;5.844;2022-12-07T05:59:18;9.32;;;1.58;;
54201;SDS011;40108;53.152;5.844;2022-12-07T06:01:53;8.65;;;1.15;;
54201;SDS011;40108;53.152;5.844;2022-12-07T06:04:23;10.13;;;1.33;;
54201;SDS011;40108;53.152;5.844;2022-12-07T06:06:50;9.93;;;1.50;;
54201;SDS011;40108;53.152;5.844;2022-12-07T06:09:16;13.40;;;1.88;;
54201;SDS011;40108;53.152;5.844;2022-12-07T06:11:43;15.98;;;1.65;;
54201;SDS011;40108;53.152;5.844;2022-12-07T06:14:27;17.33;;;2.00;;
54201;SDS011;40108;53.152;5.844;2022-12-07T06:16:53;16.98;;;1.85;;
54201;SDS011;40108;53.152;5.844;2022-12-07T06:19:19;18.42;;;1.70;;
54201;SDS011;40108;53.152;5.844;2022-12-07T06:21:45;12.00;;;1.40;;
54201;SDS011;40108;53.152;5.844;2022-12-07T06:24:10;13.43;;;1.48;;
54201;SDS011;40108;53.152;5.844;2022-12-07T06:26:37;27.42;;;3.65;;
54201;SDS011;40108;53.152;5.844;2022-12-07T06:29:02;105.93;;;43.65;;
54201;SDS011;40108;53.152;5.844;2022-12-07T06:31:28;65.20;;;23.25;;
54201;SDS011;40108;53.152;5.844;2022-12-07T06:34:01;26.67;;;7.75;;
54201;SDS011;40108;53.152;5.844;2022-12-07T06:36:28;75.57;;;26.70;;
54201;SDS011;40108;53.152;5.844;2022-12-07T06:38:54;59.53;;;22.40;;
54201;SDS011;40108;53.152;5.844;2022-12-07T06:41:21;15.25;;;4.20;;
54201;SDS011;40108;53.152;5.844;2022-12-07T06:43:47;19.27;;;6.25;;
54201;SDS011;40108;53.152;5.844;2022-12-07T06:46:13;19.42;;;4.50;;
54201;SDS011;40108;53.152;5.844;2022-12-07T06:48:39;12.57;;;3.88;;
54201;SDS011;40108;53.152;5.844;2022-12-07T06:51:05;17.63;;;2.38;;
54201;SDS011;40108;53.152;5.844;2022-12-07T06:53:31;11.68;;;2.30;;
54201;SDS011;40108;53.152;5.844;2022-12-07T06:55:57;8.63;;;1.30;;
54201;SDS011;40108;53.152;5.844;2022-12-07T06:58:22;12.60;;;1.60;;
54201;SDS011;40108;53.152;5.844;2022-12-07T07:00:48;13.15;;;1.15;;
54201;SDS011;40108;53.152;5.844;2022-12-07T07:03:15;13.18;;;1.15;;
54201;SDS011;40108;53.152;5.844;2022-12-07T07:05:41;9.00;;;1.10;;
54201;SDS011;40108;53.152;5.844;2022-12-07T07:08:08;8.38;;;1.30;;
54201;SDS011;40108;53.152;5.844;2022-12-07T07:10:34;9.18;;;1.40;;
54201;SDS011;40108;53.152;5.844;2022-12-07T07:13:00;7.45;;;0.80;;
54201;SDS011;40108;53.152;5.844;2022-12-07T07:15:26;10.32;;;1.30;;
54201;SDS011;40108;53.152;5.844;2022-12-07T07:17:51;8.55;;;0.98;;
54201;SDS011;40108;53.152;5.844;2022-12-07T07:20:17;6.90;;;1.20;;
54201;SDS011;40108;53.152;5.844;2022-12-07T07:22:43;11.27;;;1.60;;
54201;SDS011;40108;53.152;5.844;2022-12-07T07:25:09;11.52;;;1.42;;
54201;SDS011;40108;53.152;5.844;2022-12-07T07:27:34;12.63;;;1.60;;
54201;SDS011;40108;53.152;5.844;2022-12-07T07:30:00;19.73;;;1.95;;
54201;SDS011;40108;53.152;5.844;2022-12-07T07:32:26;9.90;;;1.83;;
54201;SDS011;40108;53.152;5.844;2022-12-07T07:34:51;19.80;;;1.55;;
54201;SDS011;40108;53.152;5.844;2022-12-07T07:37:17;9.00;;;1.50;;
54201;SDS011;40108;53.152;5.844;2022-12-07T07:39:43;14.10;;;1.50;;
54201;SDS011;40108;53.152;5.844;2022-12-07T07:42:09;12.63;;;2.08;;
54201;SDS011;40108;53.152;5.844;2022-12-07T07:44:34;6.15;;;1.00;;
54201;SDS011;40108;53.152;5.844;2022-12-07T07:47:00;12.35;;;1.90;;
54201;SDS011;40108;53.152;5.844;2022-12-07T07:49:26;20.25;;;1.75;;
54201;SDS011;40108;53.152;5.844;2022-12-07T07:51:51;12.63;;;1.52;;
54201;SDS011;40108;53.152;5.844;2022-12-07T07:54:17;13.98;;;2.20;;
54201;SDS011;40108;53.152;5.844;2022-12-07T07:56:43;13.38;;;1.25;;
54201;SDS011;40108;53.152;5.844;2022-12-07T07:59:11;12.98;;;1.83;;
54201;SDS011;40108;53.152;5.844;2022-12-07T08:01:37;16.35;;;1.70;;
54201;SDS011;40108;53.152;5.844;2022-12-07T08:04:02;12.23;;;1.92;;
54201;SDS011;40108;53.152;5.844;2022-12-07T08:06:28;16.63;;;1.95;;
54201;SDS011;40108;53.152;5.844;2022-12-07T08:08:54;13.82;;;1.85;;
54201;SDS011;40108;53.152;5.844;2022-12-07T08:11:19;13.90;;;1.60;;
54201;SDS011;40108;53.152;5.844;2022-12-07T08:13:46;21.00;;;1.88;;
54201;SDS011;40108;53.152;5.844;2022-12-07T08:16:12;12.20;;;1.77;;
54201;SDS011;40108;53.152;5.844;2022-12-07T08:18:40;14.40;;;2.15;;
54201;SDS011;40108;53.152;5.844;2022-12-07T08:21:07;14.55;;;1.45;;
54201;SDS011;40108;53.152;5.844;2022-12-07T08:23:36;13.77;;;1.60;;
54201;SDS011;40108;53.152;5.844;2022-12-07T08:26:07;8.68;;;1.35;;
54201;SDS011;40108;53.152;5.844;2022-12-07T08:28:34;8.17;;;0.90;;
54201;SDS011;40108;53.152;5.844;2022-12-07T08:31:04;7.18;;;0.73;;
54201;SDS011;40108;53.152;5.844;2022-12-07T08:33:32;7.90;;;0.93;;
54201;SDS011;40108;53.152;5.844;2022-12-07T08:36:05;6.43;;;0.82;;
54201;SDS011;40108;53.152;5.844;2022-12-07T08:38:36;6.97;;;0.93;;
54201;SDS011;40108;53.152;5.844;2022-12-07T08:41:03;9.52;;;0.93;;
54201;SDS011;40108;53.152;5.844;2022-12-07T08:43:29;5.97;;;0.95;;
54201;SDS011;40108;53.152;5.844;2022-12-07T08:46:06;10.80;;;1.00;;
54201;SDS011;40108;53.152;5.844;2022-12-07T08:48:34;8.20;;;0.70;;
54201;SDS011;40108;53.152;5.844;2022-12-07T08:51:04;4.82;;;0.73;;
54201;SDS011;40108;53.152;5.844;2022-12-07T08:53:29;7.50;;;0.95;;
54201;SDS011;40108;53.152;5.844;2022-12-07T08:55:56;3.50;;;0.90;;
54201;SDS011;40108;53.152;5.844;2022-12-07T08:58:23;9.25;;;1.02;;
54201;SDS011;40108;53.152;5.844;2022-12-07T09:00:49;4.07;;;0.90;;
54201;SDS011;40108;53.152;5.844;2022-12-07T09:03:15;14.75;;;1.10;;
54201;SDS011;40108;53.152;5.844;2022-12-07T09:05:41;5.63;;;0.90;;
54201;SDS011;40108;53.152;5.844;2022-12-07T09:08:07;7.70;;;1.08;;
54201;SDS011;40108;53.152;5.844;2022-12-07T09:10:33;7.78;;;1.10;;
54201;SDS011;40108;53.152;5.844;2022-12-07T09:12:59;10.82;;;1.30;;
54201;SDS011;40108;53.152;5.844;2022-12-07T09:15:28;8.27;;;1.10;;
54201;SDS011;40108;53.152;5.844;2022-12-07T09:17:54;14.65;;;1.35;;
54201;SDS011;40108;53.152;5.844;2022-12-07T09:20:20;11.27;;;1.20;;
54201;SDS011;40108;53.152;5.844;2022-12-07T09:22:45;8.05;;;1.05;;
54201;SDS011;40108;53.152;5.844;2022-12-07T09:25:11;8.18;;;1.15;;
54201;SDS011;40108;53.152;5.844;2022-12-07T09:27:37;8.82;;;1.40;;
54201;SDS011;40108;53.152;5.844;2022-12-07T09:30:03;8.18;;;1.20;;
54201;SDS011;40108;53.152;5.844;2022-12-07T09:32:30;7.03;;;1.00;;
54201;SDS011;40108;53.152;5.844;2022-12-07T09:34:56;5.97;;;1.08;;
54201;SDS011;40108;53.152;5.844;2022-12-07T09:37:21;7.13;;;1.30;;
54201;SDS011;40108;53.152;5.844;2022-12-07T09:39:47;4.85;;;1.00;;
54201;SDS011;40108;53.152;5.844;2022-12-07T09:42:21;5.95;;;1.38;;
54201;SDS011;40108;53.152;5.844;2022-12-07T09:44:52;8.93;;;1.30;;
54201;SDS011;40108;53.152;5.844;2022-12-07T09:47:18;7.95;;;1.10;;
54201;SDS011;40108;53.152;5.844;2022-12-07T09:49:44;13.32;;;1.40;;
54201;SDS011;40108;53.152;5.844;2022-12-07T09:54:44;11.45;;;1.95;;
54201;SDS011;40108;53.152;5.844;2022-12-07T09:57:12;7.90;;;1.90;;
54201;SDS011;40108;53.152;5.844;2022-12-07T09:59:38;15.38;;;1.63;;
54201;SDS011;40108;53.152;5.844;2022-12-07T10:02:34;7.88;;;1.20;;
54201;SDS011;40108;53.152;5.844;2022-12-07T10:05:24;11.77;;;2.13;;
54201;SDS011;40108;53.152;5.844;2022-12-07T10:07:51;5.65;;;1.27;;
54201;SDS011;40108;53.152;5.844;2022-12-07T10:10:28;12.88;;;1.60;;
54201;SDS011;40108;53.152;5.844;2022-12-07T10:13:03;8.55;;;1.60;;
54201;SDS011;40108;53.152;5.844;2022-12-07T10:18:33;9.52;;;1.08;;
54201;SDS011;40108;53.152;5.844;2022-12-07T10:21:16;8.10;;;1.40;;
54201;SDS011;40108;53.152;5.844;2022-12-07T10:31:43;4.78;;;0.95;;
54201;SDS011;40108;53.152;5.844;2022-12-07T10:34:21;1.58;;;0.70;;
54201;SDS011;40108;53.152;5.844;2022-12-07T10:36:52;4.97;;;0.63;;
54201;SDS011;40108;53.152;5.844;2022-12-07T10:39:22;5.07;;;0.80;;
54201;SDS011;40108;53.152;5.844;2022-12-07T10:41:55;5.28;;;1.05;;
54201;SDS011;40108;53.152;5.844;2022-12-07T10:44:24;6.50;;;0.70;;
54201;SDS011;40108;53.152;5.844;2022-12-07T10:55:27;3.35;;;0.70;;
54201;SDS011;40108;53.152;5.844;2022-12-07T11:03:41;4.47;;;0.80;;
54201;SDS011;40108;53.152;5.844;2022-12-07T11:06:27;4.50;;;0.60;;
54201;SDS011;40108;53.152;5.844;2022-12-07T11:12:04;3.17;;;0.70;;
54201;SDS011;40108;53.152;5.844;2022-12-07T11:14:57;4.25;;;0.70;;
54201;SDS011;40108;53.152;5.844;2022-12-07T11:17:36;2.60;;;0.77;;
54201;SDS011;40108;53.152;5.844;2022-12-07T11:23:27;8.85;;;1.02;;
54201;SDS011;40108;53.152;5.844;2022-12-07T11:26:19;13.32;;;1.35;;
54201;SDS011;40108;53.152;5.844;2022-12-07T11:29:02;13.00;;;1.83;;
54201;SDS011;40108;53.152;5.844;2022-12-07T11:32:04;7.88;;;1.38;;
54201;SDS011;40108;53.152;5.844;2022-12-07T11:37:24;5.30;;;0.95;;
54201;SDS011;40108;53.152;5.844;2022-12-07T11:39:55;9.88;;;0.90;;
54201;SDS011;40108;53.152;5.844;2022-12-07T11:42:41;8.73;;;1.05;;
54201;SDS011;40108;53.152;5.844;2022-12-07T11:45:27;9.52;;;1.30;;
54201;SDS011;40108;53.152;5.844;2022-12-07T11:50:43;8.48;;;1.38;;
54201;SDS011;40108;53.152;5.844;2022-12-07T11:58:35;4.25;;;0.65;;
54201;SDS011;40108;53.152;5.844;2022-12-07T12:06:37;4.65;;;0.70;;
54201;SDS011;40108;53.152;5.844;2022-12-07T12:12:01;4.45;;;0.95;;
54201;SDS011;40108;53.152;5.844;2022-12-07T12:14:40;5.97;;;1.13;;
54201;SDS011;40108;53.152;5.844;2022-12-07T12:25:39;5.95;;;0.70;;
54201;SDS011;40108;53.152;5.844;2022-12-07T12:28:05;4.40;;;0.90;;
54201;SDS011;40108;53.152;5.844;2022-12-07T12:33:53;7.03;;;1.45;;
54201;SDS011;40108;53.152;5.844;2022-12-07T12:36:25;5.63;;;0.82;;
54201;SDS011;40108;53.152;5.844;2022-12-07T12:38:52;7.03;;;0.80;;
54201;SDS011;40108;53.152;5.844;2022-12-07T12:47:02;7.47;;;0.80;;
54201;SDS011;40108;53.152;5.844;2022-12-07T12:54:35;12.15;;;0.80;;
54201;SDS011;40108;53.152;5.844;2022-12-07T13:02:30;7.30;;;0.80;;
54201;SDS011;40108;53.152;5.844;2022-12-07T13:07:47;5.00;;;0.88;;
54201;SDS011;40108;53.152;5.844;2022-12-07T13:15:37;7.78;;;0.98;;
54201;SDS011;40108;53.152;5.844;2022-12-07T13:18:23;5.03;;;0.60;;
54201;SDS011;40108;53.152;5.844;2022-12-07T13:23:37;4.55;;;0.60;;
54201;SDS011;40108;53.152;5.844;2022-12-07T13:28:45;3.67;;;0.75;;
54201;SDS011;40108;53.152;5.844;2022-12-07T13:31:19;2.85;;;0.65;;
54201;SDS011;40108;53.152;5.844;2022-12-07T13:33:54;3.22;;;0.50;;
54201;SDS011;40108;53.152;5.844;2022-12-07T13:38:55;7.10;;;1.25;;
54201;SDS011;40108;53.152;5.844;2022-12-07T13:41:23;2.25;;;0.57;;
54201;SDS011;40108;53.152;5.844;2022-12-07T13:43:58;2.38;;;0.50;;
54201;SDS011;40108;53.152;5.844;2022-12-07T13:49:38;3.38;;;0.47;;
54201;SDS011;40108;53.152;5.844;2022-12-07T13:52:15;3.92;;;0.70;;
54201;SDS011;40108;53.152;5.844;2022-12-07T13:54:49;7.82;;;1.00;;
54201;SDS011;40108;53.152;5.844;2022-12-07T13:57:20;8.90;;;0.65;;
54201;SDS011;40108;53.152;5.844;2022-12-07T13:59:47;8.43;;;1.30;;
54201;SDS011;40108;53.152;5.844;2022-12-07T14:02:20;7.40;;;0.70;;
54201;SDS011;40108;53.152;5.844;2022-12-07T14:04:50;2.33;;;0.70;;
54201;SDS011;40108;53.152;5.844;2022-12-07T14:07:26;6.05;;;0.50;;
54201;SDS011;40108;53.152;5.844;2022-12-07T14:09:58;3.13;;;0.30;;
54201;SDS011;40108;53.152;5.844;2022-12-07T14:12:26;1.80;;;0.50;;
54201;SDS011;40108;53.152;5.844;2022-12-07T14:14:53;3.83;;;0.45;;
54201;SDS011;40108;53.152;5.844;2022-12-07T14:17:21;6.20;;;0.50;;
54201;SDS011;40108;53.152;5.844;2022-12-07T14:19:56;3.40;;;0.75;;
54201;SDS011;40108;53.152;5.844;2022-12-07T14:25:01;2.28;;;0.50;;
54201;SDS011;40108;53.152;5.844;2022-12-07T14:27:52;1.48;;;0.57;;
54201;SDS011;40108;53.152;5.844;2022-12-07T14:30:29;3.58;;;0.60;;
54201;SDS011;40108;53.152;5.844;2022-12-07T14:33:01;4.40;;;0.53;;
54201;SDS011;40108;53.152;5.844;2022-12-07T14:35:29;3.33;;;1.10;;
54201;SDS011;40108;53.152;5.844;2022-12-07T14:37:55;2.67;;;0.77;;
54201;SDS011;40108;53.152;5.844;2022-12-07T14:40:22;2.97;;;0.70;;
54201;SDS011;40108;53.152;5.844;2022-12-07T14:42:51;6.32;;;0.80;;
54201;SDS011;40108;53.152;5.844;2022-12-07T14:45:26;3.22;;;0.70;;
54201;SDS011;40108;53.152;5.844;2022-12-07T14:47:52;7.93;;;1.38;;
54201;SDS011;40108;53.152;5.844;2022-12-07T14:50:18;4.07;;;0.82;;
54201;SDS011;40108;53.152;5.844;2022-12-07T14:52:55;6.95;;;2.10;;
54201;SDS011;40108;53.152;5.844;2022-12-07T14:55:25;6.72;;;1.20;;
54201;SDS011;40108;53.152;5.844;2022-12-07T14:57:53;3.80;;;1.38;;
54201;SDS011;40108;53.152;5.844;2022-12-07T15:00:21;6.30;;;2.33;;
54201;SDS011;40108;53.152;5.844;2022-12-07T15:02:49;4.35;;;2.70;;
54201;SDS011;40108;53.152;5.844;2022-12-07T15:05:15;5.68;;;1.73;;
54201;SDS011;40108;53.152;5.844;2022-12-07T15:07:41;9.68;;;3.97;;
54201;SDS011;40108;53.152;5.844;2022-12-07T15:10:13;6.50;;;1.33;;
54201;SDS011;40108;53.152;5.844;2022-12-07T15:12:44;6.00;;;0.90;;
54201;SDS011;40108;53.152;5.844;2022-12-07T15:15:10;4.38;;;0.90;;
54201;SDS011;40108;53.152;5.844;2022-12-07T15:17:36;8.50;;;0.88;;
54201;SDS011;40108;53.152;5.844;2022-12-07T15:20:02;4.18;;;0.82;;
54201;SDS011;40108;53.152;5.844;2022-12-07T15:22:29;9.40;;;1.05;;
54201;SDS011;40108;53.152;5.844;2022-12-07T15:24:56;5.95;;;1.10;;
54201;SDS011;40108;53.152;5.844;2022-12-07T15:27:22;4.93;;;1.00;;
54201;SDS011;40108;53.152;5.844;2022-12-07T15:29:48;3.45;;;0.70;;
54201;SDS011;40108;53.152;5.844;2022-12-07T15:32:14;4.47;;;0.77;;
54201;SDS011;40108;53.152;5.844;2022-12-07T15:34:42;4.25;;;0.82;;
54201;SDS011;40108;53.152;5.844;2022-12-07T15:37:08;7.28;;;0.90;;
54201;SDS011;40108;53.152;5.844;2022-12-07T15:39:35;6.20;;;1.17;;
54201;SDS011;40108;53.152;5.844;2022-12-07T15:42:01;4.32;;;1.40;;
54201;SDS011;40108;53.152;5.844;2022-12-07T15:44:27;3.97;;;1.30;;
54201;SDS011;40108;53.152;5.844;2022-12-07T15:47:12;5.70;;;1.00;;
54201;SDS011;40108;53.152;5.844;2022-12-07T15:49:37;5.10;;;1.20;;
54201;SDS011;40108;53.152;5.844;2022-12-07T15:52:03;7.68;;;1.20;;
54201;SDS011;40108;53.152;5.844;2022-12-07T15:54:29;5.18;;;1.00;;
54201;SDS011;40108;53.152;5.844;2022-12-07T15:56:55;9.18;;;1.45;;
54201;SDS011;40108;53.152;5.844;2022-12-07T15:59:21;1.35;;;0.88;;
54201;SDS011;40108;53.152;5.844;2022-12-07T16:01:47;6.22;;;0.90;;
54201;SDS011;40108;53.152;5.844;2022-12-07T16:04:13;6.22;;;2.10;;
54201;SDS011;40108;53.152;5.844;2022-12-07T16:06:38;7.57;;;1.10;;
54201;SDS011;40108;53.152;5.844;2022-12-07T16:09:05;10.52;;;2.30;;
54201;SDS011;40108;53.152;5.844;2022-12-07T16:11:30;8.18;;;1.50;;
54201;SDS011;40108;53.152;5.844;2022-12-07T16:13:57;8.68;;;1.42;;
54201;SDS011;40108;53.152;5.844;2022-12-07T16:16:22;8.82;;;1.77;;
54201;SDS011;40108;53.152;5.844;2022-12-07T16:18:48;6.50;;;1.30;;
54201;SDS011;40108;53.152;5.844;2022-12-07T16:21:15;7.72;;;1.40;;
54201;SDS011;40108;53.152;5.844;2022-12-07T16:23:42;6.45;;;0.98;;
54201;SDS011;40108;53.152;5.844;2022-12-07T16:26:12;3.85;;;0.90;;
54201;SDS011;40108;53.152;5.844;2022-12-07T16:28:40;4.50;;;1.00;;
54201;SDS011;40108;53.152;5.844;2022-12-07T16:31:08;3.65;;;0.88;;
54201;SDS011;40108;53.152;5.844;2022-12-07T16:33:36;3.50;;;0.70;;
54201;SDS011;40108;53.152;5.844;2022-12-07T16:36:03;4.90;;;0.90;;
54201;SDS011;40108;53.152;5.844;2022-12-07T16:38:30;6.72;;;1.25;;
54201;SDS011;40108;53.152;5.844;2022-12-07T16:40:56;4.35;;;1.30;;
54201;SDS011;40108;53.152;5.844;2022-12-07T16:43:22;5.63;;;1.10;;
54201;SDS011;40108;53.152;5.844;2022-12-07T16:45:48;9.07;;;1.70;;
54201;SDS011;40108;53.152;5.844;2022-12-07T16:48:14;10.45;;;1.23;;
54201;SDS011;40108;53.152;5.844;2022-12-07T16:50:41;7.72;;;1.10;;
54201;SDS011;40108;53.152;5.844;2022-12-07T16:53:08;5.45;;;1.15;;
54201;SDS011;40108;53.152;5.844;2022-12-07T16:55:38;6.07;;;1.60;;
54201;SDS011;40108;53.152;5.844;2022-12-07T16:58:05;12.60;;;2.50;;
54201;SDS011;40108;53.152;5.844;2022-12-07T17:00:31;19.13;;;4.57;;
54201;SDS011;40108;53.152;5.844;2022-12-07T17:02:58;10.52;;;1.80;;
54201;SDS011;40108;53.152;5.844;2022-12-07T17:05:23;7.75;;;1.67;;
54201;SDS011;40108;53.152;5.844;2022-12-07T17:07:50;11.25;;;1.80;;